sensor_id;sensor_type;location;lat;lon;timestamp;temperature;humidity
21031;DHT22;61072;47.808;7.636;2023-04-24T00:00:06;12.70;99.90
21031;DHT22;61072;47.808;7.636;2023-04-24T00:02:36;12.70;99.90
21031;DHT22;61072;47.808;7.636;2023-04-24T00:05:07;12.70;99.90
21031;DHT22;61072;47.808;7.636;2023-04-24T00:07:34;12.70;99.90
21031;DHT22;61072;47.808;7.636;2023-04-24T00:10:01;12.60;99.90
21031;DHT22;61072;47.808;7.636;2023-04-24T00:12:28;12.60;99.90
21031;DHT22;61072;47.808;7.636;2023-04-24T00:14:54;12.60;99.90
21031;DHT22;61072;47.808;7.636;2023-04-24T00:17:21;12.60;99.90
21031;DHT22;61072;47.808;7.636;2023-04-24T00:19:48;12.50;99.90
21031;DHT22;61072;47.808;7.636;2023-04-24T00:22:17;12.50;99.90
21031;DHT22;61072;47.808;7.636;2023-04-24T00:24:44;12.50;99.90
21031;DHT22;61072;47.808;7.636;2023-04-24T00:27:11;12.50;99.90
21031;DHT22;61072;47.808;7.636;2023-04-24T00:29:38;12.60;99.90
21031;DHT22;61072;47.808;7.636;2023-04-24T00:32:04;12.60;99.90
21031;DHT22;61072;47.808;7.636;2023-04-24T00:34:31;12.60;99.90
21031;DHT22;61072;47.808;7.636;2023-04-24T00:36:59;12.60;99.90
21031;DHT22;61072;47.808;7.636;2023-04-24T00:39:26;12.70;99.90
21031;DHT22;61072;47.808;7.636;2023-04-24T00:41:52;12.70;99.90
21031;DHT22;61072;47.808;7.636;2023-04-24T00:44:19;12.70;99.90
21031;DHT22;61072;47.808;7.636;2023-04-24T00:46:46;12.70;99.90
21031;DHT22;61072;47.808;7.636;2023-04-24T00:49:14;12.70;99.90
21031;DHT22;61072;47.808;7.636;2023-04-24T00:51:40;12.80;99.90
21031;DHT22;61072;47.808;7.636;2023-04-24T00:54:12;12.80;99.90
21031;DHT22;61072;47.808;7.636;2023-04-24T00:56:40;12.80;99.90
21031;DHT22;61072;47.808;7.636;2023-04-24T00:59:08;12.80;99.90
21031;DHT22;61072;47.808;7.636;2023-04-24T01:01:35;12.90;99.90
21031;DHT22;61072;47.808;7.636;2023-04-24T01:04:02;12.90;99.90
21031;DHT22;61072;47.808;7.636;2023-04-24T01:06:30;12.80;99.90
21031;DHT22;61072;47.808;7.636;2023-04-24T01:08:58;12.80;99.90
21031;DHT22;61072;47.808;7.636;2023-04-24T01:11:26;12.90;99.90
21031;DHT22;61072;47.808;7.636;2023-04-24T01:13:53;12.80;99.90
21031;DHT22;61072;47.808;7.636;2023-04-24T01:16:20;12.80;99.90
21031;DHT22;61072;47.808;7.636;2023-04-24T01:18:49;12.80;99.90
21031;DHT22;61072;47.808;7.636;2023-04-24T01:21:16;12.80;99.90
21031;DHT22;61072;47.808;7.636;2023-04-24T01:23:44;12.80;99.90
21031;DHT22;61072;47.808;7.636;2023-04-24T01:26:13;12.80;99.90
21031;DHT22;61072;47.808;7.636;2023-04-24T01:28:40;12.80;99.90
21031;DHT22;61072;47.808;7.636;2023-04-24T01:31:07;12.80;99.90
21031;DHT22;61072;47.808;7.636;2023-04-24T01:33:34;12.70;99.90
21031;DHT22;61072;47.808;7.636;2023-04-24T01:36:00;12.70;99.90
21031;DHT22;61072;47.808;7.636;2023-04-24T01:38:27;12.70;99.90
21031;DHT22;61072;47.808;7.636;2023-04-24T01:40:54;12.70;99.90
21031;DHT22;61072;47.808;7.636;2023-04-24T01:43:21;12.80;99.90
21031;DHT22;61072;47.808;7.636;2023-04-24T01:45:48;12.70;99.90
21031;DHT22;61072;47.808;7.636;2023-04-24T01:48:15;12.70;99.90
21031;DHT22;61072;47.808;7.636;2023-04-24T01:50:41;12.80;99.90
21031;DHT22;61072;47.808;7.636;2023-04-24T01:53:08;12.80;99.90
21031;DHT22;61072;47.808;7.636;2023-04-24T01:55:35;12.80;99.90
21031;DHT22;61072;47.808;7.636;2023-04-24T01:58:02;12.80;99.90
21031;DHT22;61072;47.808;7.636;2023-04-24T02:00:28;12.80;99.90
21031;DHT22;61072;47.808;7.636;2023-04-24T02:02:55;12.80;99.90
21031;DHT22;61072;47.808;7.636;2023-04-24T02:05:22;12.80;99.90
21031;DHT22;61072;47.808;7.636;2023-04-24T02:07:49;12.80;99.90
21031;DHT22;61072;47.808;7.636;2023-04-24T02:10:16;12.80;99.90
21031;DHT22;61072;47.808;7.636;2023-04-24T02:12:42;12.70;99.90
21031;DHT22;61072;47.808;7.636;2023-04-24T02:15:10;12.70;99.90
21031;DHT22;61072;47.808;7.636;2023-04-24T02:17:37;12.70;99.90
21031;DHT22;61072;47.808;7.636;2023-04-24T02:20:05;12.70;99.90
21031;DHT22;61072;47.808;7.636;2023-04-24T02:22:32;12.60;99.90
21031;DHT22;61072;47.808;7.636;2023-04-24T02:24:58;12.70;99.90
21031;DHT22;61072;47.808;7.636;2023-04-24T02:27:25;12.60;99.90
21031;DHT22;61072;47.808;7.636;2023-04-24T02:29:52;12.60;99.90
21031;DHT22;61072;47.808;7.636;2023-04-24T02:32:18;12.60;99.90
21031;DHT22;61072;47.808;7.636;2023-04-24T02:34:45;12.60;99.90
21031;DHT22;61072;47.808;7.636;2023-04-24T02:37:12;12.60;99.90
21031;DHT22;61072;47.808;7.636;2023-04-24T02:39:40;12.50;99.90
21031;DHT22;61072;47.808;7.636;2023-04-24T02:42:07;12.60;99.90
21031;DHT22;61072;47.808;7.636;2023-04-24T02:44:34;12.60;99.90
21031;DHT22;61072;47.808;7.636;2023-04-24T02:47:01;12.60;99.90
21031;DHT22;61072;47.808;7.636;2023-04-24T02:49:28;12.50;99.90
21031;DHT22;61072;47.808;7.636;2023-04-24T02:51:54;12.50;99.90
21031;DHT22;61072;47.808;7.636;2023-04-24T02:54:21;12.50;99.90
21031;DHT22;61072;47.808;7.636;2023-04-24T02:56:48;12.50;99.90
21031;DHT22;61072;47.808;7.636;2023-04-24T02:59:14;12.50;99.90
21031;DHT22;61072;47.808;7.636;2023-04-24T03:01:41;12.50;99.90
21031;DHT22;61072;47.808;7.636;2023-04-24T03:04:08;12.50;99.90
21031;DHT22;61072;47.808;7.636;2023-04-24T03:06:35;12.40;99.90
21031;DHT22;61072;47.808;7.636;2023-04-24T03:09:02;12.40;99.90
21031;DHT22;61072;47.808;7.636;2023-04-24T03:11:29;12.40;99.90
21031;DHT22;61072;47.808;7.636;2023-04-24T03:13:56;12.40;99.90
21031;DHT22;61072;47.808;7.636;2023-04-24T03:16:23;12.40;99.90
21031;DHT22;61072;47.808;7.636;2023-04-24T03:18:49;12.30;99.90
21031;DHT22;61072;47.808;7.636;2023-04-24T03:21:16;12.40;99.90
21031;DHT22;61072;47.808;7.636;2023-04-24T03:23:43;12.40;99.90
21031;DHT22;61072;47.808;7.636;2023-04-24T03:26:09;12.40;99.90
21031;DHT22;61072;47.808;7.636;2023-04-24T03:28:36;12.40;99.90
21031;DHT22;61072;47.808;7.636;2023-04-24T03:31:03;12.30;99.90
21031;DHT22;61072;47.808;7.636;2023-04-24T03:33:30;12.30;99.90
21031;DHT22;61072;47.808;7.636;2023-04-24T03:35:57;12.30;99.90
21031;DHT22;61072;47.808;7.636;2023-04-24T03:38:23;12.30;99.90
21031;DHT22;61072;47.808;7.636;2023-04-24T03:40:50;12.30;99.90
21031;DHT22;61072;47.808;7.636;2023-04-24T03:43:17;12.20;99.90
21031;DHT22;61072;47.808;7.636;2023-04-24T03:45:43;12.10;99.90
21031;DHT22;61072;47.808;7.636;2023-04-24T03:48:10;12.10;99.90
21031;DHT22;61072;47.808;7.636;2023-04-24T03:50:37;12.10;99.90
21031;DHT22;61072;47.808;7.636;2023-04-24T03:53:03;12.10;99.90
21031;DHT22;61072;47.808;7.636;2023-04-24T03:55:30;12.10;99.90
21031;DHT22;61072;47.808;7.636;2023-04-24T03:57:57;12.10;99.90
21031;DHT22;61072;47.808;7.636;2023-04-24T04:00:24;12.10;99.90
21031;DHT22;61072;47.808;7.636;2023-04-24T04:02:51;12.10;99.90
21031;DHT22;61072;47.808;7.636;2023-04-24T04:05:17;12.10;99.90
21031;DHT22;61072;47.808;7.636;2023-04-24T04:07:44;12.10;99.90
21031;DHT22;61072;47.808;7.636;2023-04-24T04:10:11;12.00;99.90
21031;DHT22;61072;47.808;7.636;2023-04-24T04:12:38;12.00;99.90
21031;DHT22;61072;47.808;7.636;2023-04-24T04:15:05;12.10;99.90
21031;DHT22;61072;47.808;7.636;2023-04-24T04:17:33;12.10;99.90
21031;DHT22;61072;47.808;7.636;2023-04-24T04:20:00;12.10;99.90
21031;DHT22;61072;47.808;7.636;2023-04-24T04:22:27;12.00;99.90
21031;DHT22;61072;47.808;7.636;2023-04-24T04:24:54;12.00;99.90
21031;DHT22;61072;47.808;7.636;2023-04-24T04:27:20;12.10;99.90
21031;DHT22;61072;47.808;7.636;2023-04-24T04:29:47;12.00;99.90
21031;DHT22;61072;47.808;7.636;2023-04-24T04:32:14;12.00;99.90
21031;DHT22;61072;47.808;7.636;2023-04-24T04:34:42;12.00;99.90
21031;DHT22;61072;47.808;7.636;2023-04-24T04:37:09;12.00;99.90
21031;DHT22;61072;47.808;7.636;2023-04-24T04:39:37;11.90;99.90
21031;DHT22;61072;47.808;7.636;2023-04-24T04:42:04;11.90;99.90
21031;DHT22;61072;47.808;7.636;2023-04-24T04:44:31;11.80;99.90
21031;DHT22;61072;47.808;7.636;2023-04-24T04:46:57;11.90;99.90
21031;DHT22;61072;47.808;7.636;2023-04-24T04:49:25;11.80;99.90
21031;DHT22;61072;47.808;7.636;2023-04-24T04:51:54;11.80;99.90
21031;DHT22;61072;47.808;7.636;2023-04-24T04:54:21;11.80;99.90
21031;DHT22;61072;47.808;7.636;2023-04-24T04:56:50;11.80;99.90
21031;DHT22;61072;47.808;7.636;2023-04-24T04:59:17;11.80;99.90
21031;DHT22;61072;47.808;7.636;2023-04-24T05:01:43;11.80;99.90
21031;DHT22;61072;47.808;7.636;2023-04-24T05:04:10;11.70;99.90
21031;DHT22;61072;47.808;7.636;2023-04-24T05:06:37;11.70;99.90
21031;DHT22;61072;47.808;7.636;2023-04-24T05:09:04;11.70;99.90
21031;DHT22;61072;47.808;7.636;2023-04-24T05:11:30;11.70;99.90
21031;DHT22;61072;47.808;7.636;2023-04-24T05:13:57;11.70;99.90
21031;DHT22;61072;47.808;7.636;2023-04-24T05:16:24;11.60;99.90
21031;DHT22;61072;47.808;7.636;2023-04-24T05:18:50;11.60;99.90
21031;DHT22;61072;47.808;7.636;2023-04-24T05:21:17;11.60;99.90
21031;DHT22;61072;47.808;7.636;2023-04-24T05:23:44;11.50;99.90
21031;DHT22;61072;47.808;7.636;2023-04-24T05:26:10;11.50;99.90
21031;DHT22;61072;47.808;7.636;2023-04-24T05:28:37;11.60;99.90
21031;DHT22;61072;47.808;7.636;2023-04-24T05:31:04;11.50;99.90
21031;DHT22;61072;47.808;7.636;2023-04-24T05:33:31;11.60;99.90
21031;DHT22;61072;47.808;7.636;2023-04-24T05:35:57;11.60;99.90
21031;DHT22;61072;47.808;7.636;2023-04-24T05:38:24;11.60;99.90
21031;DHT22;61072;47.808;7.636;2023-04-24T05:40:51;11.60;99.90
21031;DHT22;61072;47.808;7.636;2023-04-24T05:43:18;11.60;99.90
21031;DHT22;61072;47.808;7.636;2023-04-24T05:45:45;11.60;99.90
21031;DHT22;61072;47.808;7.636;2023-04-24T05:48:12;11.70;99.90
21031;DHT22;61072;47.808;7.636;2023-04-24T05:50:38;11.70;99.90
21031;DHT22;61072;47.808;7.636;2023-04-24T05:53:06;11.70;99.90
21031;DHT22;61072;47.808;7.636;2023-04-24T05:55:33;11.70;99.90
21031;DHT22;61072;47.808;7.636;2023-04-24T05:58:00;11.70;99.90
21031;DHT22;61072;47.808;7.636;2023-04-24T06:00:27;11.70;99.90
21031;DHT22;61072;47.808;7.636;2023-04-24T06:02:55;11.70;99.90
21031;DHT22;61072;47.808;7.636;2023-04-24T06:05:22;11.70;99.90
21031;DHT22;61072;47.808;7.636;2023-04-24T06:07:49;11.70;99.90
21031;DHT22;61072;47.808;7.636;2023-04-24T06:10:16;11.70;99.90
21031;DHT22;61072;47.808;7.636;2023-04-24T06:12:43;11.60;99.90
21031;DHT22;61072;47.808;7.636;2023-04-24T06:15:10;11.60;99.90
21031;DHT22;61072;47.808;7.636;2023-04-24T06:17:37;11.60;99.90
21031;DHT22;61072;47.808;7.636;2023-04-24T06:20:04;11.50;99.90
21031;DHT22;61072;47.808;7.636;2023-04-24T06:22:32;11.60;99.90
21031;DHT22;61072;47.808;7.636;2023-04-24T06:24:59;11.50;99.90
21031;DHT22;61072;47.808;7.636;2023-04-24T06:27:27;11.50;99.90
21031;DHT22;61072;47.808;7.636;2023-04-24T06:29:53;11.50;99.90
21031;DHT22;61072;47.808;7.636;2023-04-24T06:32:22;11.50;99.90
21031;DHT22;61072;47.808;7.636;2023-04-24T06:34:53;11.60;99.90
21031;DHT22;61072;47.808;7.636;2023-04-24T06:37:20;11.60;99.90
21031;DHT22;61072;47.808;7.636;2023-04-24T06:39:47;11.60;99.90
21031;DHT22;61072;47.808;7.636;2023-04-24T06:42:14;11.70;99.90
21031;DHT22;61072;47.808;7.636;2023-04-24T06:44:40;11.80;99.90
21031;DHT22;61072;47.808;7.636;2023-04-24T06:47:11;11.80;99.90
21031;DHT22;61072;47.808;7.636;2023-04-24T06:49:40;11.90;99.90
21031;DHT22;61072;47.808;7.636;2023-04-24T06:52:07;11.90;99.90
21031;DHT22;61072;47.808;7.636;2023-04-24T06:54:34;11.90;99.90
21031;DHT22;61072;47.808;7.636;2023-04-24T06:57:00;11.90;99.90
21031;DHT22;61072;47.808;7.636;2023-04-24T06:59:29;11.90;99.90
21031;DHT22;61072;47.808;7.636;2023-04-24T07:01:56;11.80;99.90
21031;DHT22;61072;47.808;7.636;2023-04-24T07:04:23;11.70;99.90
21031;DHT22;61072;47.808;7.636;2023-04-24T07:06:52;11.70;99.90
21031;DHT22;61072;47.808;7.636;2023-04-24T07:09:25;11.70;99.90
21031;DHT22;61072;47.808;7.636;2023-04-24T07:11:52;11.70;99.90
21031;DHT22;61072;47.808;7.636;2023-04-24T07:14:20;11.60;99.90
21031;DHT22;61072;47.808;7.636;2023-04-24T07:16:47;11.50;99.90
21031;DHT22;61072;47.808;7.636;2023-04-24T07:19:14;11.40;99.90
21031;DHT22;61072;47.808;7.636;2023-04-24T07:21:40;11.40;99.90
21031;DHT22;61072;47.808;7.636;2023-04-24T07:24:08;11.30;99.90
21031;DHT22;61072;47.808;7.636;2023-04-24T07:26:39;11.30;99.90
21031;DHT22;61072;47.808;7.636;2023-04-24T07:29:07;11.30;99.90
21031;DHT22;61072;47.808;7.636;2023-04-24T07:31:34;11.30;99.90
21031;DHT22;61072;47.808;7.636;2023-04-24T07:34:01;11.30;99.90
21031;DHT22;61072;47.808;7.636;2023-04-24T07:36:27;11.30;99.90
21031;DHT22;61072;47.808;7.636;2023-04-24T07:38:55;11.30;99.90
21031;DHT22;61072;47.808;7.636;2023-04-24T07:41:22;11.40;99.90
21031;DHT22;61072;47.808;7.636;2023-04-24T07:43:51;11.40;99.90
21031;DHT22;61072;47.808;7.636;2023-04-24T07:46:19;11.40;99.90
21031;DHT22;61072;47.808;7.636;2023-04-24T07:48:46;11.40;99.90
21031;DHT22;61072;47.808;7.636;2023-04-24T07:51:24;11.40;99.90
21031;DHT22;61072;47.808;7.636;2023-04-24T07:53:52;11.40;99.90
21031;DHT22;61072;47.808;7.636;2023-04-24T07:56:20;11.50;99.90
21031;DHT22;61072;47.808;7.636;2023-04-24T07:58:47;11.60;99.90
21031;DHT22;61072;47.808;7.636;2023-04-24T08:01:13;11.60;99.90
21031;DHT22;61072;47.808;7.636;2023-04-24T08:03:40;11.70;99.90
21031;DHT22;61072;47.808;7.636;2023-04-24T08:06:08;11.70;99.90
21031;DHT22;61072;47.808;7.636;2023-04-24T08:08:35;11.70;99.90
21031;DHT22;61072;47.808;7.636;2023-04-24T08:11:01;11.60;99.90
21031;DHT22;61072;47.808;7.636;2023-04-24T08:13:28;11.70;99.90
21031;DHT22;61072;47.808;7.636;2023-04-24T08:15:56;11.60;99.90
21031;DHT22;61072;47.808;7.636;2023-04-24T08:18:23;11.60;99.90
21031;DHT22;61072;47.808;7.636;2023-04-24T08:20:50;11.60;99.90
21031;DHT22;61072;47.808;7.636;2023-04-24T08:23:16;11.60;99.90
21031;DHT22;61072;47.808;7.636;2023-04-24T08:25:43;11.70;99.90
21031;DHT22;61072;47.808;7.636;2023-04-24T08:28:10;11.80;99.90
21031;DHT22;61072;47.808;7.636;2023-04-24T08:30:37;11.80;99.90
21031;DHT22;61072;47.808;7.636;2023-04-24T08:33:04;11.80;99.90
21031;DHT22;61072;47.808;7.636;2023-04-24T08:35:31;12.00;99.90
21031;DHT22;61072;47.808;7.636;2023-04-24T08:37:58;12.10;99.90
21031;DHT22;61072;47.808;7.636;2023-04-24T08:40:28;12.30;99.90
21031;DHT22;61072;47.808;7.636;2023-04-24T08:42:58;12.50;99.90
21031;DHT22;61072;47.808;7.636;2023-04-24T08:45:25;12.60;99.90
21031;DHT22;61072;47.808;7.636;2023-04-24T08:47:53;12.70;99.90
21031;DHT22;61072;47.808;7.636;2023-04-24T08:50:24;12.80;99.90
21031;DHT22;61072;47.808;7.636;2023-04-24T08:52:51;12.80;99.90
21031;DHT22;61072;47.808;7.636;2023-04-24T08:55:20;12.80;99.90
21031;DHT22;61072;47.808;7.636;2023-04-24T08:57:52;12.80;99.90
21031;DHT22;61072;47.808;7.636;2023-04-24T09:00:20;12.70;99.90
21031;DHT22;61072;47.808;7.636;2023-04-24T09:02:49;12.80;99.90
21031;DHT22;61072;47.808;7.636;2023-04-24T09:05:17;12.70;99.90
21031;DHT22;61072;47.808;7.636;2023-04-24T09:07:47;12.70;99.90
21031;DHT22;61072;47.808;7.636;2023-04-24T09:10:15;12.70;99.90
21031;DHT22;61072;47.808;7.636;2023-04-24T09:12:43;12.60;99.90
21031;DHT22;61072;47.808;7.636;2023-04-24T09:15:11;12.60;99.90
21031;DHT22;61072;47.808;7.636;2023-04-24T09:17:38;12.60;99.90
21031;DHT22;61072;47.808;7.636;2023-04-24T09:20:05;12.60;99.90
21031;DHT22;61072;47.808;7.636;2023-04-24T09:22:32;12.60;99.90
21031;DHT22;61072;47.808;7.636;2023-04-24T09:25:06;12.60;99.90
21031;DHT22;61072;47.808;7.636;2023-04-24T09:27:36;12.80;99.90
21031;DHT22;61072;47.808;7.636;2023-04-24T09:30:07;12.90;99.90
21031;DHT22;61072;47.808;7.636;2023-04-24T09:32:34;13.10;99.90
21031;DHT22;61072;47.808;7.636;2023-04-24T09:37:39;13.40;99.90
21031;DHT22;61072;47.808;7.636;2023-04-24T09:40:20;13.50;99.90
21031;DHT22;61072;47.808;7.636;2023-04-24T09:42:56;13.60;99.90
21031;DHT22;61072;47.808;7.636;2023-04-24T09:45:36;13.70;99.90
21031;DHT22;61072;47.808;7.636;2023-04-24T09:48:03;13.70;99.90
21031;DHT22;61072;47.808;7.636;2023-04-24T09:50:31;13.60;99.90
21031;DHT22;61072;47.808;7.636;2023-04-24T09:53:05;13.60;99.90
21031;DHT22;61072;47.808;7.636;2023-04-24T09:55:40;13.50;99.90
21031;DHT22;61072;47.808;7.636;2023-04-24T09:58:08;13.50;99.90
21031;DHT22;61072;47.808;7.636;2023-04-24T10:00:34;13.50;99.90
21031;DHT22;61072;47.808;7.636;2023-04-24T10:03:02;13.50;99.90
21031;DHT22;61072;47.808;7.636;2023-04-24T10:05:36;13.60;99.90
21031;DHT22;61072;47.808;7.636;2023-04-24T10:08:08;13.70;99.90
21031;DHT22;61072;47.808;7.636;2023-04-24T10:10:42;13.70;99.90
21031;DHT22;61072;47.808;7.636;2023-04-24T10:13:10;13.70;99.90
21031;DHT22;61072;47.808;7.636;2023-04-24T10:15:38;13.60;99.90
21031;DHT22;61072;47.808;7.636;2023-04-24T10:18:05;13.50;99.90
21031;DHT22;61072;47.808;7.636;2023-04-24T10:20:36;13.50;99.90
21031;DHT22;61072;47.808;7.636;2023-04-24T10:23:03;13.30;99.90
21031;DHT22;61072;47.808;7.636;2023-04-24T10:25:33;13.40;99.90
21031;DHT22;61072;47.808;7.636;2023-04-24T10:28:00;13.50;99.90
21031;DHT22;61072;47.808;7.636;2023-04-24T10:30:30;13.60;99.90
21031;DHT22;61072;47.808;7.636;2023-04-24T10:32:57;13.70;99.90
21031;DHT22;61072;47.808;7.636;2023-04-24T10:35:23;13.80;99.90
21031;DHT22;61072;47.808;7.636;2023-04-24T10:37:58;13.80;99.90
21031;DHT22;61072;47.808;7.636;2023-04-24T10:40:29;13.90;99.90
21031;DHT22;61072;47.808;7.636;2023-04-24T10:42:57;14.10;99.90
21031;DHT22;61072;47.808;7.636;2023-04-24T10:45:25;13.90;99.90
21031;DHT22;61072;47.808;7.636;2023-04-24T10:48:18;14.00;99.90
21031;DHT22;61072;47.808;7.636;2023-04-24T10:50:54;14.00;99.90
21031;DHT22;61072;47.808;7.636;2023-04-24T10:53:22;14.10;99.90
21031;DHT22;61072;47.808;7.636;2023-04-24T10:55:51;14.10;99.90
21031;DHT22;61072;47.808;7.636;2023-04-24T11:01:06;13.90;99.90
21031;DHT22;61072;47.808;7.636;2023-04-24T11:03:34;13.90;99.90
21031;DHT22;61072;47.808;7.636;2023-04-24T11:06:06;13.80;99.90
21031;DHT22;61072;47.808;7.636;2023-04-24T11:08:38;13.80;99.90
21031;DHT22;61072;47.808;7.636;2023-04-24T11:11:14;13.70;99.90
21031;DHT22;61072;47.808;7.636;2023-04-24T11:16:28;13.80;99.90
21031;DHT22;61072;47.808;7.636;2023-04-24T11:19:07;13.90;99.90
21031;DHT22;61072;47.808;7.636;2023-04-24T11:27:17;14.10;99.90
21031;DHT22;61072;47.808;7.636;2023-04-24T11:35:10;14.50;99.90
21031;DHT22;61072;47.808;7.636;2023-04-24T11:37:42;14.60;99.90
21031;DHT22;61072;47.808;7.636;2023-04-24T11:40:11;14.50;99.90
21031;DHT22;61072;47.808;7.636;2023-04-24T11:42:40;14.40;99.90
21031;DHT22;61072;47.808;7.636;2023-04-24T11:45:09;14.30;99.90
21031;DHT22;61072;47.808;7.636;2023-04-24T11:47:36;14.30;99.90
21031;DHT22;61072;47.808;7.636;2023-04-24T11:50:05;14.30;99.90
21031;DHT22;61072;47.808;7.636;2023-04-24T11:52:36;14.30;99.90
21031;DHT22;61072;47.808;7.636;2023-04-24T11:55:03;14.30;99.90
21031;DHT22;61072;47.808;7.636;2023-04-24T11:57:30;14.30;99.90
21031;DHT22;61072;47.808;7.636;2023-04-24T12:00:02;14.40;99.90
21031;DHT22;61072;47.808;7.636;2023-04-24T12:02:30;14.30;99.90
21031;DHT22;61072;47.808;7.636;2023-04-24T12:04:57;14.40;99.90
21031;DHT22;61072;47.808;7.636;2023-04-24T12:07:24;14.40;99.90
21031;DHT22;61072;47.808;7.636;2023-04-24T12:09:58;14.50;99.90
21031;DHT22;61072;47.808;7.636;2023-04-24T12:12:27;14.60;99.90
21031;DHT22;61072;47.808;7.636;2023-04-24T12:14:56;14.60;99.90
21031;DHT22;61072;47.808;7.636;2023-04-24T12:17:28;14.60;99.90
21031;DHT22;61072;47.808;7.636;2023-04-24T12:20:06;14.50;99.90
21031;DHT22;61072;47.808;7.636;2023-04-24T12:22:54;14.50;99.90
21031;DHT22;61072;47.808;7.636;2023-04-24T12:25:23;14.40;99.90
21031;DHT22;61072;47.808;7.636;2023-04-24T12:30:30;14.60;99.90
21031;DHT22;61072;47.808;7.636;2023-04-24T12:32:58;14.70;99.90
21031;DHT22;61072;47.808;7.636;2023-04-24T12:35:31;14.70;99.90
21031;DHT22;61072;47.808;7.636;2023-04-24T12:38:11;14.60;99.90
21031;DHT22;61072;47.808;7.636;2023-04-24T12:40:40;14.60;99.90
21031;DHT22;61072;47.808;7.636;2023-04-24T12:43:15;14.60;99.90
21031;DHT22;61072;47.808;7.636;2023-04-24T12:45:42;14.50;99.90
21031;DHT22;61072;47.808;7.636;2023-04-24T12:48:09;14.60;99.90
21031;DHT22;61072;47.808;7.636;2023-04-24T12:50:36;14.60;99.90
21031;DHT22;61072;47.808;7.636;2023-04-24T12:53:04;14.50;99.90
21031;DHT22;61072;47.808;7.636;2023-04-24T12:55:31;14.50;99.90
21031;DHT22;61072;47.808;7.636;2023-04-24T12:57:57;14.50;99.90
21031;DHT22;61072;47.808;7.636;2023-04-24T13:00:24;14.60;99.90
21031;DHT22;61072;47.808;7.636;2023-04-24T13:02:51;14.60;99.90
21031;DHT22;61072;47.808;7.636;2023-04-24T13:05:18;14.70;99.90
21031;DHT22;61072;47.808;7.636;2023-04-24T13:07:45;14.80;99.90
21031;DHT22;61072;47.808;7.636;2023-04-24T13:10:11;14.90;99.90
21031;DHT22;61072;47.808;7.636;2023-04-24T13:12:39;15.00;99.90
21031;DHT22;61072;47.808;7.636;2023-04-24T13:15:07;15.00;99.90
21031;DHT22;61072;47.808;7.636;2023-04-24T13:17:34;15.20;99.90
21031;DHT22;61072;47.808;7.636;2023-04-24T13:20:00;15.30;99.90
21031;DHT22;61072;47.808;7.636;2023-04-24T13:22:27;15.40;99.90
21031;DHT22;61072;47.808;7.636;2023-04-24T13:24:54;15.50;99.90
21031;DHT22;61072;47.808;7.636;2023-04-24T13:27:21;15.60;99.90
21031;DHT22;61072;47.808;7.636;2023-04-24T13:29:47;15.70;99.90
21031;DHT22;61072;47.808;7.636;2023-04-24T13:32:14;15.80;99.90
21031;DHT22;61072;47.808;7.636;2023-04-24T13:34:41;15.80;99.90
21031;DHT22;61072;47.808;7.636;2023-04-24T13:37:08;15.60;99.90
21031;DHT22;61072;47.808;7.636;2023-04-24T13:39:35;15.60;99.90
21031;DHT22;61072;47.808;7.636;2023-04-24T13:42:02;15.70;99.90
21031;DHT22;61072;47.808;7.636;2023-04-24T13:44:30;15.70;99.90
21031;DHT22;61072;47.808;7.636;2023-04-24T13:46:58;15.70;99.90
21031;DHT22;61072;47.808;7.636;2023-04-24T13:49:25;15.50;99.90
21031;DHT22;61072;47.808;7.636;2023-04-24T13:51:53;15.20;99.90
21031;DHT22;61072;47.808;7.636;2023-04-24T13:54:20;15.00;99.90
21031;DHT22;61072;47.808;7.636;2023-04-24T13:56:47;15.00;99.90
21031;DHT22;61072;47.808;7.636;2023-04-24T13:59:13;14.70;99.90
21031;DHT22;61072;47.808;7.636;2023-04-24T14:01:40;14.60;99.90
21031;DHT22;61072;47.808;7.636;2023-04-24T14:04:07;14.60;99.90
21031;DHT22;61072;47.808;7.636;2023-04-24T14:06:34;14.50;99.90
21031;DHT22;61072;47.808;7.636;2023-04-24T14:09:01;14.40;99.90
21031;DHT22;61072;47.808;7.636;2023-04-24T14:11:28;14.30;99.90
21031;DHT22;61072;47.808;7.636;2023-04-24T14:13:55;14.30;99.90
21031;DHT22;61072;47.808;7.636;2023-04-24T14:16:24;14.20;99.90
21031;DHT22;61072;47.808;7.636;2023-04-24T14:18:51;14.20;99.90
21031;DHT22;61072;47.808;7.636;2023-04-24T14:21:18;14.20;99.90
21031;DHT22;61072;47.808;7.636;2023-04-24T14:23:45;14.10;99.90
21031;DHT22;61072;47.808;7.636;2023-04-24T14:26:12;14.20;99.90
21031;DHT22;61072;47.808;7.636;2023-04-24T14:28:39;14.20;99.90
21031;DHT22;61072;47.808;7.636;2023-04-24T14:31:06;14.10;99.90
21031;DHT22;61072;47.808;7.636;2023-04-24T14:33:32;14.20;99.90
21031;DHT22;61072;47.808;7.636;2023-04-24T14:35:59;14.20;99.90
21031;DHT22;61072;47.808;7.636;2023-04-24T14:38:26;14.30;99.90
21031;DHT22;61072;47.808;7.636;2023-04-24T14:40:53;14.40;99.90
21031;DHT22;61072;47.808;7.636;2023-04-24T14:43:22;14.60;99.90
21031;DHT22;61072;47.808;7.636;2023-04-24T14:45:49;14.70;99.90
21031;DHT22;61072;47.808;7.636;2023-04-24T14:48:16;14.80;99.90
21031;DHT22;61072;47.808;7.636;2023-04-24T14:50:44;14.90;99.90
21031;DHT22;61072;47.808;7.636;2023-04-24T14:53:11;14.90;99.90
21031;DHT22;61072;47.808;7.636;2023-04-24T14:55:38;14.80;99.90
21031;DHT22;61072;47.808;7.636;2023-04-24T14:58:05;14.70;99.90
21031;DHT22;61072;47.808;7.636;2023-04-24T15:00:31;14.60;99.90
21031;DHT22;61072;47.808;7.636;2023-04-24T15:02:59;14.50;99.90
21031;DHT22;61072;47.808;7.636;2023-04-24T15:05:27;14.50;99.90
21031;DHT22;61072;47.808;7.636;2023-04-24T15:07:54;14.60;99.90
21031;DHT22;61072;47.808;7.636;2023-04-24T15:10:21;14.60;99.90
21031;DHT22;61072;47.808;7.636;2023-04-24T15:12:49;14.70;99.90
21031;DHT22;61072;47.808;7.636;2023-04-24T15:15:16;14.70;99.90
21031;DHT22;61072;47.808;7.636;2023-04-24T15:17:43;14.80;99.90
21031;DHT22;61072;47.808;7.636;2023-04-24T15:20:09;14.80;99.90
21031;DHT22;61072;47.808;7.636;2023-04-24T15:22:36;14.80;99.90
21031;DHT22;61072;47.808;7.636;2023-04-24T15:25:03;14.70;99.90
21031;DHT22;61072;47.808;7.636;2023-04-24T15:27:45;14.70;99.90
21031;DHT22;61072;47.808;7.636;2023-04-24T15:30:12;14.60;99.90
21031;DHT22;61072;47.808;7.636;2023-04-24T15:32:39;14.50;99.90
21031;DHT22;61072;47.808;7.636;2023-04-24T15:35:07;14.50;99.90
21031;DHT22;61072;47.808;7.636;2023-04-24T15:37:36;14.40;99.90
21031;DHT22;61072;47.808;7.636;2023-04-24T15:40:04;14.30;99.90
21031;DHT22;61072;47.808;7.636;2023-04-24T15:42:33;14.30;99.90
21031;DHT22;61072;47.808;7.636;2023-04-24T15:45:00;14.30;99.90
21031;DHT22;61072;47.808;7.636;2023-04-24T15:47:27;14.30;99.90
21031;DHT22;61072;47.808;7.636;2023-04-24T15:49:53;14.30;99.90
21031;DHT22;61072;47.808;7.636;2023-04-24T15:52:21;14.20;99.90
21031;DHT22;61072;47.808;7.636;2023-04-24T15:54:48;14.20;99.90